sensor_id;sensor_type;location;lat;lon;timestamp;pressure;altitude;pressure_sealevel;temperature;humidity
29505;BME280;16452;54.174;12.092;2023-02-02T00:00:56;100371.56;;;7.23;100.00
29505;BME280;16452;54.174;12.092;2023-02-02T00:03:22;100389.28;;;7.14;100.00
29505;BME280;16452;54.174;12.092;2023-02-02T00:05:52;100391.72;;;7.17;100.00
29505;BME280;16452;54.174;12.092;2023-02-02T00:08:19;100394.69;;;7.28;100.00
29505;BME280;16452;54.174;12.092;2023-02-02T00:10:45;100409.34;;;7.09;100.00
29505;BME280;16452;54.174;12.092;2023-02-02T00:13:12;100416.66;;;7.19;100.00
29505;BME280;16452;54.174;12.092;2023-02-02T00:15:38;100414.78;;;7.03;100.00
29505;BME280;16452;54.174;12.092;2023-02-02T00:18:05;100424.84;;;7.10;100.00
29505;BME280;16452;54.174;12.092;2023-02-02T00:20:31;100436.09;;;7.09;100.00
29505;BME280;16452;54.174;12.092;2023-02-02T00:22:59;100433.19;;;6.96;100.00
29505;BME280;16452;54.174;12.092;2023-02-02T00:25:25;100458.09;;;6.99;100.00
29505;BME280;16452;54.174;12.092;2023-02-02T00:27:51;100451.09;;;7.01;100.00
29505;BME280;16452;54.174;12.092;2023-02-02T00:30:17;100460.63;;;7.00;100.00
29505;BME280;16452;54.174;12.092;2023-02-02T00:32:43;100468.53;;;6.97;100.00
29505;BME280;16452;54.174;12.092;2023-02-02T00:35:09;100474.09;;;6.88;100.00
29505;BME280;16452;54.174;12.092;2023-02-02T00:37:35;100481.19;;;6.83;100.00
29505;BME280;16452;54.174;12.092;2023-02-02T00:40:01;100482.59;;;6.92;100.00
29505;BME280;16452;54.174;12.092;2023-02-02T00:42:27;100496.03;;;6.80;100.00
29505;BME280;16452;54.174;12.092;2023-02-02T00:44:52;100492.41;;;6.84;100.00
29505;BME280;16452;54.174;12.092;2023-02-02T00:47:36;100500.97;;;6.86;100.00
29505;BME280;16452;54.174;12.092;2023-02-02T00:50:02;100510.53;;;6.84;100.00
29505;BME280;16452;54.174;12.092;2023-02-02T00:52:28;100504.03;;;6.74;100.00
29505;BME280;16452;54.174;12.092;2023-02-02T00:54:54;100528.03;;;6.77;100.00
29505;BME280;16452;54.174;12.092;2023-02-02T00:57:20;100532.56;;;6.72;100.00
29505;BME280;16452;54.174;12.092;2023-02-02T00:59:46;100529.94;;;6.74;100.00
29505;BME280;16452;54.174;12.092;2023-02-02T01:02:15;100532.56;;;6.72;100.00
29505;BME280;16452;54.174;12.092;2023-02-02T01:04:40;100541.19;;;6.73;100.00
29505;BME280;16452;54.174;12.092;2023-02-02T01:07:06;100552.72;;;6.64;100.00
29505;BME280;16452;54.174;12.092;2023-02-02T01:09:32;100546.28;;;6.52;100.00
29505;BME280;16452;54.174;12.092;2023-02-02T01:11:57;100555.41;;;6.63;100.00
29505;BME280;16452;54.174;12.092;2023-02-02T01:14:23;100564.41;;;6.52;100.00
29505;BME280;16452;54.174;12.092;2023-02-02T01:16:49;100577.94;;;6.59;100.00
29505;BME280;16452;54.174;12.092;2023-02-02T01:19:15;100577.66;;;6.67;100.00
29505;BME280;16452;54.174;12.092;2023-02-02T01:21:42;100584.28;;;6.52;100.00
29505;BME280;16452;54.174;12.092;2023-02-02T01:24:08;100585.44;;;6.67;100.00
29505;BME280;16452;54.174;12.092;2023-02-02T01:26:33;100597.00;;;6.58;100.00
29505;BME280;16452;54.174;12.092;2023-02-02T01:28:59;100601.13;;;6.62;100.00
29505;BME280;16452;54.174;12.092;2023-02-02T01:31:25;100603.81;;;6.59;100.00
29505;BME280;16452;54.174;12.092;2023-02-02T01:33:51;100614.63;;;6.47;100.00
29505;BME280;16452;54.174;12.092;2023-02-02T01:36:21;100623.25;;;6.47;100.00
29505;BME280;16452;54.174;12.092;2023-02-02T01:38:48;100629.63;;;6.39;100.00
29505;BME280;16452;54.174;12.092;2023-02-02T01:41:18;100632.19;;;6.62;100.00
29505;BME280;16452;54.174;12.092;2023-02-02T01:46:19;100641.66;;;6.40;100.00
29505;BME280;16452;54.174;12.092;2023-02-02T01:49:16;100656.66;;;6.53;100.00
29505;BME280;16452;54.174;12.092;2023-02-02T01:51:56;100661.69;;;6.35;100.00
29505;BME280;16452;54.174;12.092;2023-02-02T01:54:34;100675.06;;;6.46;100.00
29505;BME280;16452;54.174;12.092;2023-02-02T01:57:39;100675.78;;;6.49;100.00
29505;BME280;16452;54.174;12.092;2023-02-02T02:00:11;100681.09;;;6.46;100.00
29505;BME280;16452;54.174;12.092;2023-02-02T02:02:39;100680.13;;;6.49;100.00
29505;BME280;16452;54.174;12.092;2023-02-02T02:05:06;100683.16;;;6.37;100.00
29505;BME280;16452;54.174;12.092;2023-02-02T02:07:32;100691.44;;;6.23;100.00
29505;BME280;16452;54.174;12.092;2023-02-02T02:09:58;100692.47;;;6.17;100.00
29505;BME280;16452;54.174;12.092;2023-02-02T02:12:24;100698.13;;;6.29;100.00
29505;BME280;16452;54.174;12.092;2023-02-02T02:14:50;100699.31;;;6.18;100.00
29505;BME280;16452;54.174;12.092;2023-02-02T02:18:07;100707.22;;;6.15;100.00
29505;BME280;16452;54.174;12.092;2023-02-02T02:21:24;100715.53;;;6.24;100.00
29505;BME280;16452;54.174;12.092;2023-02-02T02:27:57;100733.06;;;6.15;100.00
29505;BME280;16452;54.174;12.092;2023-02-02T02:33:47;100739.53;;;6.02;100.00
29505;BME280;16452;54.174;12.092;2023-02-02T02:36:57;100745.69;;;6.00;100.00
29505;BME280;16452;54.174;12.092;2023-02-02T02:39:38;100750.63;;;5.79;100.00
29505;BME280;16452;54.174;12.092;2023-02-02T02:42:21;100754.91;;;5.81;100.00
29505;BME280;16452;54.174;12.092;2023-02-02T02:44:48;100761.84;;;5.78;100.00
29505;BME280;16452;54.174;12.092;2023-02-02T02:47:16;100773.72;;;5.84;100.00
29505;BME280;16452;54.174;12.092;2023-02-02T02:49:48;100767.25;;;5.99;100.00
29505;BME280;16452;54.174;12.092;2023-02-02T02:52:34;100777.66;;;5.97;100.00
29505;BME280;16452;54.174;12.092;2023-02-02T02:55:01;100781.97;;;5.97;100.00
29505;BME280;16452;54.174;12.092;2023-02-02T02:57:46;100787.41;;;6.14;100.00
29505;BME280;16452;54.174;12.092;2023-02-02T03:00:58;100793.25;;;6.21;100.00
29505;BME280;16452;54.174;12.092;2023-02-02T03:09:09;100811.97;;;6.01;100.00
29505;BME280;16452;54.174;12.092;2023-02-02T03:11:36;100817.22;;;5.99;100.00
29505;BME280;16452;54.174;12.092;2023-02-02T03:14:02;100828.75;;;5.89;100.00
29505;BME280;16452;54.174;12.092;2023-02-02T03:16:28;100831.97;;;5.96;100.00
29505;BME280;16452;54.174;12.092;2023-02-02T03:18:55;100839.25;;;5.83;100.00
29505;BME280;16452;54.174;12.092;2023-02-02T03:21:21;100837.00;;;6.00;100.00
29505;BME280;16452;54.174;12.092;2023-02-02T03:23:47;100832.88;;;5.95;100.00
29505;BME280;16452;54.174;12.092;2023-02-02T03:26:13;100842.78;;;5.81;100.00
29505;BME280;16452;54.174;12.092;2023-02-02T03:28:39;100851.81;;;5.95;100.00
29505;BME280;16452;54.174;12.092;2023-02-02T03:31:06;100851.22;;;5.87;100.00
29505;BME280;16452;54.174;12.092;2023-02-02T03:33:35;100857.25;;;5.88;100.00
29505;BME280;16452;54.174;12.092;2023-02-02T03:36:01;100862.66;;;5.78;100.00
29505;BME280;16452;54.174;12.092;2023-02-02T03:38:26;100864.94;;;5.89;100.00
29505;BME280;16452;54.174;12.092;2023-02-02T03:40:52;100874.56;;;5.83;100.00
29505;BME280;16452;54.174;12.092;2023-02-02T03:43:22;100874.50;;;5.86;100.00
29505;BME280;16452;54.174;12.092;2023-02-02T03:45:59;100881.56;;;5.81;100.00
29505;BME280;16452;54.174;12.092;2023-02-02T03:48:25;100885.56;;;5.91;100.00
29505;BME280;16452;54.174;12.092;2023-02-02T03:50:52;100892.59;;;5.86;100.00
29505;BME280;16452;54.174;12.092;2023-02-02T03:53:18;100893.47;;;5.85;100.00
29505;BME280;16452;54.174;12.092;2023-02-02T03:55:43;100899.31;;;5.93;100.00
29505;BME280;16452;54.174;12.092;2023-02-02T03:58:09;100907.53;;;5.76;100.00
29505;BME280;16452;54.174;12.092;2023-02-02T04:00:35;100909.22;;;5.77;100.00
29505;BME280;16452;54.174;12.092;2023-02-02T04:03:01;100916.72;;;5.86;100.00
29505;BME280;16452;54.174;12.092;2023-02-02T04:05:26;100915.75;;;5.90;100.00
29505;BME280;16452;54.174;12.092;2023-02-02T04:07:52;100924.28;;;5.94;100.00
29505;BME280;16452;54.174;12.092;2023-02-02T04:10:19;100922.72;;;5.88;100.00
29505;BME280;16452;54.174;12.092;2023-02-02T04:12:45;100933.94;;;5.87;100.00
29505;BME280;16452;54.174;12.092;2023-02-02T04:15:10;100939.06;;;5.89;100.00
29505;BME280;16452;54.174;12.092;2023-02-02T04:17:37;100943.00;;;6.00;100.00
29505;BME280;16452;54.174;12.092;2023-02-02T04:20:05;100945.13;;;5.88;100.00
29505;BME280;16452;54.174;12.092;2023-02-02T04:22:32;100949.88;;;6.01;100.00
29505;BME280;16452;54.174;12.092;2023-02-02T04:24:57;100950.75;;;6.00;100.00
29505;BME280;16452;54.174;12.092;2023-02-02T04:27:23;100954.13;;;6.04;100.00
29505;BME280;16452;54.174;12.092;2023-02-02T04:29:49;100953.50;;;5.96;100.00
29505;BME280;16452;54.174;12.092;2023-02-02T04:32:16;100964.09;;;5.87;100.00
29505;BME280;16452;54.174;12.092;2023-02-02T04:34:42;100966.53;;;5.93;100.00
29505;BME280;16452;54.174;12.092;2023-02-02T04:37:11;100975.00;;;5.98;100.00
29505;BME280;16452;54.174;12.092;2023-02-02T04:39:37;100973.94;;;6.03;100.00
29505;BME280;16452;54.174;12.092;2023-02-02T04:42:03;100979.09;;;6.05;100.00
29505;BME280;16452;54.174;12.092;2023-02-02T04:44:29;100979.97;;;6.04;100.00
29505;BME280;16452;54.174;12.092;2023-02-02T04:46:55;100975.19;;;5.90;100.00
29505;BME280;16452;54.174;12.092;2023-02-02T04:49:20;100986.13;;;6.00;100.00
29505;BME280;16452;54.174;12.092;2023-02-02T04:51:46;100985.22;;;6.01;100.00
29505;BME280;16452;54.174;12.092;2023-02-02T04:54:12;100985.28;;;5.99;100.00
29505;BME280;16452;54.174;12.092;2023-02-02T04:56:38;100992.28;;;5.96;100.00
29505;BME280;16452;54.174;12.092;2023-02-02T04:59:04;100995.91;;;5.89;100.00
29505;BME280;16452;54.174;12.092;2023-02-02T05:01:29;101006.38;;;5.84;100.00
29505;BME280;16452;54.174;12.092;2023-02-02T05:03:56;101006.00;;;5.67;100.00
29505;BME280;16452;54.174;12.092;2023-02-02T05:06:21;101006.69;;;5.73;100.00
29505;BME280;16452;54.174;12.092;2023-02-02T05:08:48;101011.78;;;5.76;100.00
29505;BME280;16452;54.174;12.092;2023-02-02T05:11:17;101011.53;;;5.84;100.00
29505;BME280;16452;54.174;12.092;2023-02-02T05:13:48;101014.97;;;5.85;100.00
29505;BME280;16452;54.174;12.092;2023-02-02T05:16:14;101011.44;;;5.89;100.00
29505;BME280;16452;54.174;12.092;2023-02-02T05:18:41;101014.69;;;5.95;100.00
29505;BME280;16452;54.174;12.092;2023-02-02T05:21:08;101011.50;;;5.87;100.00
29505;BME280;16452;54.174;12.092;2023-02-02T05:23:34;101023.16;;;6.00;100.00
29505;BME280;16452;54.174;12.092;2023-02-02T05:26:00;101025.28;;;5.88;100.00
29505;BME280;16452;54.174;12.092;2023-02-02T05:28:26;101031.03;;;5.97;100.00
29505;BME280;16452;54.174;12.092;2023-02-02T05:30:52;101031.66;;;5.74;100.00
29505;BME280;16452;54.174;12.092;2023-02-02T05:33:18;101029.63;;;5.84;100.00
29505;BME280;16452;54.174;12.092;2023-02-02T05:35:47;101031.19;;;5.91;100.00
29505;BME280;16452;54.174;12.092;2023-02-02T05:38:14;101033.88;;;5.88;100.00
29505;BME280;16452;54.174;12.092;2023-02-02T05:40:41;101044.78;;;5.67;100.00
29505;BME280;16452;54.174;12.092;2023-02-02T05:43:06;101046.16;;;5.78;100.00
29505;BME280;16452;54.174;12.092;2023-02-02T05:45:32;101042.66;;;5.81;100.00
29505;BME280;16452;54.174;12.092;2023-02-02T05:47:58;101046.31;;;5.74;100.00
29505;BME280;16452;54.174;12.092;2023-02-02T05:50:24;101046.81;;;5.88;100.00
29505;BME280;16452;54.174;12.092;2023-02-02T05:52:50;101051.69;;;5.97;100.00
29505;BME280;16452;54.174;12.092;2023-02-02T05:55:16;101046.06;;;6.12;100.00
29505;BME280;16452;54.174;12.092;2023-02-02T05:57:42;101057.00;;;5.93;100.00
29505;BME280;16452;54.174;12.092;2023-02-02T06:00:09;101055.50;;;6.15;100.00
29505;BME280;16452;54.174;12.092;2023-02-02T06:02:35;101062.31;;;6.17;100.00
29505;BME280;16452;54.174;12.092;2023-02-02T06:05:01;101061.47;;;6.17;100.00
29505;BME280;16452;54.174;12.092;2023-02-02T06:07:27;101069.66;;;6.31;100.00
29505;BME280;16452;54.174;12.092;2023-02-02T06:09:53;101071.94;;;6.12;100.00
29505;BME280;16452;54.174;12.092;2023-02-02T06:12:18;101077.22;;;6.09;100.00
29505;BME280;16452;54.174;12.092;2023-02-02T06:14:44;101081.22;;;6.19;100.00
29505;BME280;16452;54.174;12.092;2023-02-02T06:17:10;101087.63;;;6.36;100.00
29505;BME280;16452;54.174;12.092;2023-02-02T06:19:36;101082.34;;;6.40;100.00
29505;BME280;16452;54.174;12.092;2023-02-02T06:22:01;101093.50;;;6.41;100.00
29505;BME280;16452;54.174;12.092;2023-02-02T06:24:27;101097.25;;;6.32;100.00
29505;BME280;16452;54.174;12.092;2023-02-02T06:26:53;101111.41;;;6.48;100.00
29505;BME280;16452;54.174;12.092;2023-02-02T06:29:19;101112.41;;;6.44;100.00
29505;BME280;16452;54.174;12.092;2023-02-02T06:31:44;101111.56;;;6.44;100.00
29505;BME280;16452;54.174;12.092;2023-02-02T06:34:11;101123.44;;;6.51;100.00
29505;BME280;16452;54.174;12.092;2023-02-02T06:36:40;101127.81;;;6.47;100.00
29505;BME280;16452;54.174;12.092;2023-02-02T06:39:06;101117.44;;;6.49;100.00
29505;BME280;16452;54.174;12.092;2023-02-02T06:41:33;101130.16;;;6.56;100.00
29505;BME280;16452;54.174;12.092;2023-02-02T06:44:00;101137.78;;;6.61;100.00
29505;BME280;16452;54.174;12.092;2023-02-02T06:46:26;101136.78;;;6.65;100.00
29505;BME280;16452;54.174;12.092;2023-02-02T06:48:51;101140.91;;;6.43;100.00
29505;BME280;16452;54.174;12.092;2023-02-02T06:51:17;101145.06;;;6.48;100.00
29505;BME280;16452;54.174;12.092;2023-02-02T06:53:47;101154.81;;;6.68;100.00
29505;BME280;16452;54.174;12.092;2023-02-02T06:56:14;101155.72;;;6.67;100.00
29505;BME280;16452;54.174;12.092;2023-02-02T06:58:40;101161.38;;;6.50;100.00
29505;BME280;16452;54.174;12.092;2023-02-02T07:01:11;101162.94;;;6.56;100.00
29505;BME280;16452;54.174;12.092;2023-02-02T07:03:38;101179.75;;;6.41;100.00
29505;BME280;16452;54.174;12.092;2023-02-02T07:06:19;101184.00;;;6.73;100.00
29505;BME280;16452;54.174;12.092;2023-02-02T07:08:46;101185.13;;;6.65;100.00
29505;BME280;16452;54.174;12.092;2023-02-02T07:11:12;101183.66;;;6.56;100.00
29505;BME280;16452;54.174;12.092;2023-02-02T07:13:38;101186.41;;;6.50;100.00
29505;BME280;16452;54.174;12.092;2023-02-02T07:16:04;101201.28;;;6.43;100.00
29505;BME280;16452;54.174;12.092;2023-02-02T07:18:31;101207.97;;;6.50;100.00
29505;BME280;16452;54.174;12.092;2023-02-02T07:21:00;101212.66;;;6.67;100.00
29505;BME280;16452;54.174;12.092;2023-02-02T07:23:29;101216.66;;;6.48;100.00
29505;BME280;16452;54.174;12.092;2023-02-02T07:26:05;101216.44;;;6.55;100.00
29505;BME280;16452;54.174;12.092;2023-02-02T07:28:31;101221.41;;;6.63;100.00
29505;BME280;16452;54.174;12.092;2023-02-02T07:30:57;101235.00;;;6.40;100.00
29505;BME280;16452;54.174;12.092;2023-02-02T07:33:23;101229.41;;;6.55;100.00
29505;BME280;16452;54.174;12.092;2023-02-02T07:35:48;101235.34;;;6.28;100.00
29505;BME280;16452;54.174;12.092;2023-02-02T07:38:14;101237.97;;;6.27;100.00
29505;BME280;16452;54.174;12.092;2023-02-02T07:40:40;101244.34;;;6.13;100.00
29505;BME280;16452;54.174;12.092;2023-02-02T07:43:06;101250.63;;;6.03;100.00
29505;BME280;16452;54.174;12.092;2023-02-02T07:45:31;101247.19;;;6.04;100.00
29505;BME280;16452;54.174;12.092;2023-02-02T07:47:58;101258.13;;;6.14;100.00
29505;BME280;16452;54.174;12.092;2023-02-02T07:50:25;101277.78;;;5.86;100.00
29505;BME280;16452;54.174;12.092;2023-02-02T07:52:52;101265.59;;;5.91;100.00
29505;BME280;16452;54.174;12.092;2023-02-02T07:55:18;101270.06;;;5.83;100.00
29505;BME280;16452;54.174;12.092;2023-02-02T07:57:44;101285.47;;;5.89;100.00
29505;BME280;16452;54.174;12.092;2023-02-02T08:00:11;101293.28;;;5.86;100.00
29505;BME280;16452;54.174;12.092;2023-02-02T08:02:37;101292.59;;;5.77;100.00
29505;BME280;16452;54.174;12.092;2023-02-02T08:05:02;101293.56;;;5.73;100.00
29505;BME280;16452;54.174;12.092;2023-02-02T08:07:29;101301.03;;;5.86;100.00
29505;BME280;16452;54.174;12.092;2023-02-02T08:09:56;101308.94;;;5.79;100.00
29505;BME280;16452;54.174;12.092;2023-02-02T08:12:22;101308.13;;;5.77;98.34
29505;BME280;16452;54.174;12.092;2023-02-02T08:14:49;101318.25;;;5.88;98.25
29505;BME280;16452;54.174;12.092;2023-02-02T08:17:14;101314.72;;;5.92;98.67
29505;BME280;16452;54.174;12.092;2023-02-02T08:19:40;101324.06;;;5.96;97.04
29505;BME280;16452;54.174;12.092;2023-02-02T08:22:06;101328.25;;;6.02;97.12
29505;BME280;16452;54.174;12.092;2023-02-02T08:24:32;101333.25;;;6.09;95.56
29505;BME280;16452;54.174;12.092;2023-02-02T08:26:57;101337.44;;;6.13;95.44
29505;BME280;16452;54.174;12.092;2023-02-02T08:29:23;101357.38;;;6.10;95.74
29505;BME280;16452;54.174;12.092;2023-02-02T08:31:49;101349.06;;;6.31;95.85
29505;BME280;16452;54.174;12.092;2023-02-02T08:34:15;101368.66;;;6.41;95.70
29505;BME280;16452;54.174;12.092;2023-02-02T08:36:41;101362.00;;;6.31;96.34
29505;BME280;16452;54.174;12.092;2023-02-02T08:39:11;101370.22;;;6.13;96.87
29505;BME280;16452;54.174;12.092;2023-02-02T08:41:37;101371.47;;;5.97;98.25
29505;BME280;16452;54.174;12.092;2023-02-02T08:44:08;101387.53;;;6.11;100.00
29505;BME280;16452;54.174;12.092;2023-02-02T08:46:34;101383.81;;;5.83;100.00
29505;BME280;16452;54.174;12.092;2023-02-02T08:49:01;101401.41;;;5.67;100.00
29505;BME280;16452;54.174;12.092;2023-02-02T08:51:26;101415.28;;;5.63;100.00
29505;BME280;16452;54.174;12.092;2023-02-02T08:53:52;101412.81;;;5.58;100.00
29505;BME280;16452;54.174;12.092;2023-02-02T08:56:20;101412.69;;;5.64;100.00
29505;BME280;16452;54.174;12.092;2023-02-02T08:58:53;101422.91;;;5.69;100.00
29505;BME280;16452;54.174;12.092;2023-02-02T09:01:28;101433.56;;;5.54;100.00
29505;BME280;16452;54.174;12.092;2023-02-02T09:04:01;101449.91;;;5.54;100.00
29505;BME280;16452;54.174;12.092;2023-02-02T09:06:35;101443.97;;;5.51;100.00
29505;BME280;16452;54.174;12.092;2023-02-02T09:09:04;101454.28;;;5.52;100.00
29505;BME280;16452;54.174;12.092;2023-02-02T09:11:30;101455.53;;;5.33;100.00
29505;BME280;16452;54.174;12.092;2023-02-02T09:14:05;101468.28;;;5.41;98.35
29505;BME280;16452;54.174;12.092;2023-02-02T09:16:33;101464.16;;;5.30;97.63
29505;BME280;16452;54.174;12.092;2023-02-02T09:19:00;101460.25;;;5.11;97.40
29505;BME280;16452;54.174;12.092;2023-02-02T09:21:26;101466.28;;;5.10;97.65
29505;BME280;16452;54.174;12.092;2023-02-02T09:23:53;101461.75;;;5.23;96.48
29505;BME280;16452;54.174;12.092;2023-02-02T09:26:25;101471.25;;;5.21;96.52
29505;BME280;16452;54.174;12.092;2023-02-02T09:29:01;101479.59;;;5.35;97.84
29505;BME280;16452;54.174;12.092;2023-02-02T09:31:29;101485.75;;;5.28;95.60
29505;BME280;16452;54.174;12.092;2023-02-02T09:33:59;101488.44;;;5.23;93.43
29505;BME280;16452;54.174;12.092;2023-02-02T09:36:25;101496.22;;;5.20;91.10
29505;BME280;16452;54.174;12.092;2023-02-02T09:38:51;101504.72;;;5.25;90.92
29505;BME280;16452;54.174;12.092;2023-02-02T09:49:15;101525.91;;;5.46;90.28
29505;BME280;16452;54.174;12.092;2023-02-02T09:51:52;101540.25;;;5.60;89.18
29505;BME280;16452;54.174;12.092;2023-02-02T09:54:31;101534.84;;;5.72;89.54
29505;BME280;16452;54.174;12.092;2023-02-02T09:57:03;101544.31;;;5.72;89.54
29505;BME280;16452;54.174;12.092;2023-02-02T09:59:36;101548.75;;;5.65;88.70
29505;BME280;16452;54.174;12.092;2023-02-02T10:04:57;101548.03;;;5.59;88.40
29505;BME280;16452;54.174;12.092;2023-02-02T10:07:40;101559.19;;;5.61;87.11
29505;BME280;16452;54.174;12.092;2023-02-02T10:10:33;101565.31;;;5.55;87.38
29505;BME280;16452;54.174;12.092;2023-02-02T10:13:15;101573.09;;;5.54;88.83
29505;BME280;16452;54.174;12.092;2023-02-02T10:16:16;101582.13;;;5.77;88.64
29505;BME280;16452;54.174;12.092;2023-02-02T10:19:00;101577.13;;;5.70;88.32
29505;BME280;16452;54.174;12.092;2023-02-02T10:22:04;101585.63;;;5.76;87.92
29505;BME280;16452;54.174;12.092;2023-02-02T10:24:32;101597.63;;;5.77;89.45
29505;BME280;16452;54.174;12.092;2023-02-02T10:27:14;101591.88;;;5.63;87.54
29505;BME280;16452;54.174;12.092;2023-02-02T10:30:00;101598.50;;;5.78;88.73
29505;BME280;16452;54.174;12.092;2023-02-02T10:32:49;101593.81;;;6.00;88.01
29505;BME280;16452;54.174;12.092;2023-02-02T10:41:55;101611.38;;;5.81;87.74
29505;BME280;16452;54.174;12.092;2023-02-02T10:44:51;101613.41;;;5.64;87.24
29505;BME280;16452;54.174;12.092;2023-02-02T10:47:30;101613.09;;;5.82;88.18
29505;BME280;16452;54.174;12.092;2023-02-02T10:52:41;101629.50;;;5.78;88.32
29505;BME280;16452;54.174;12.092;2023-02-02T10:55:26;101634.72;;;5.76;88.26
29505;BME280;16452;54.174;12.092;2023-02-02T10:58:00;101626.69;;;5.93;88.49
29505;BME280;16452;54.174;12.092;2023-02-02T11:00:45;101633.16;;;6.14;88.77
29505;BME280;16452;54.174;12.092;2023-02-02T11:03:14;101639.66;;;5.90;87.32
29505;BME280;16452;54.174;12.092;2023-02-02T11:05:41;101645.75;;;5.88;87.24
29505;BME280;16452;54.174;12.092;2023-02-02T11:08:45;101641.44;;;5.87;87.66
29505;BME280;16452;54.174;12.092;2023-02-02T11:11:31;101649.50;;;5.68;86.75
29505;BME280;16452;54.174;12.092;2023-02-02T11:14:10;101655.16;;;5.90;88.32
29505;BME280;16452;54.174;12.092;2023-02-02T11:16:44;101652.50;;;5.95;87.85
29505;BME280;16452;54.174;12.092;2023-02-02T11:21:47;101659.28;;;6.00;88.88
29505;BME280;16452;54.174;12.092;2023-02-02T11:24:45;101663.00;;;5.87;89.32
29505;BME280;16452;54.174;12.092;2023-02-02T11:27:19;101668.25;;;5.81;89.10
29505;BME280;16452;54.174;12.092;2023-02-02T11:29:48;101676.91;;;5.78;88.24
29505;BME280;16452;54.174;12.092;2023-02-02T11:32:29;101679.59;;;5.71;88.10
29505;BME280;16452;54.174;12.092;2023-02-02T11:37:36;101675.25;;;5.76;88.80
29505;BME280;16452;54.174;12.092;2023-02-02T11:42:49;101678.94;;;5.61;89.91
29505;BME280;16452;54.174;12.092;2023-02-02T11:45:34;101688.19;;;5.73;90.56
29505;BME280;16452;54.174;12.092;2023-02-02T11:48:19;101687.31;;;5.75;89.94
29505;BME280;16452;54.174;12.092;2023-02-02T11:50:50;101694.28;;;5.70;91.06
29505;BME280;16452;54.174;12.092;2023-02-02T11:53:36;101695.81;;;5.82;88.78
29505;BME280;16452;54.174;12.092;2023-02-02T11:56:25;101694.09;;;5.81;88.32
29505;BME280;16452;54.174;12.092;2023-02-02T11:58:54;101691.06;;;5.56;89.62
29505;BME280;16452;54.174;12.092;2023-02-02T12:01:39;101694.31;;;5.69;90.35
29505;BME280;16452;54.174;12.092;2023-02-02T12:06:42;101693.28;;;5.77;90.63
29505;BME280;16452;54.174;12.092;2023-02-02T12:09:13;101701.81;;;5.83;90.74
29505;BME280;16452;54.174;12.092;2023-02-02T12:12:14;101707.44;;;6.06;89.38
29505;BME280;16452;54.174;12.092;2023-02-02T12:17:43;101706.16;;;5.81;88.07
29505;BME280;16452;54.174;12.092;2023-02-02T12:20:55;101709.53;;;5.87;88.24
29505;BME280;16452;54.174;12.092;2023-02-02T12:26:33;101711.69;;;6.11;90.38
29505;BME280;16452;54.174;12.092;2023-02-02T12:29:28;101716.06;;;6.06;89.62
29505;BME280;16452;54.174;12.092;2023-02-02T12:32:27;101711.50;;;6.22;89.55
29505;BME280;16452;54.174;12.092;2023-02-02T12:35:21;101720.69;;;6.37;88.21
29505;BME280;16452;54.174;12.092;2023-02-02T12:38:06;101710.47;;;6.29;88.32
29505;BME280;16452;54.174;12.092;2023-02-02T12:43:43;101722.69;;;6.23;88.52
29505;BME280;16452;54.174;12.092;2023-02-02T12:46:35;101721.94;;;6.16;88.87
29505;BME280;16452;54.174;12.092;2023-02-02T12:52:20;101716.53;;;6.28;88.74
29505;BME280;16452;54.174;12.092;2023-02-02T12:55:27;101723.16;;;6.41;87.54
29505;BME280;16452;54.174;12.092;2023-02-02T13:10:00;101729.38;;;6.34;87.60
29505;BME280;16452;54.174;12.092;2023-02-02T13:12:29;101736.94;;;6.43;87.97
29505;BME280;16452;54.174;12.092;2023-02-02T13:15:02;101738.78;;;6.37;88.93
29505;BME280;16452;54.174;12.092;2023-02-02T13:20:39;101759.97;;;6.57;87.42
29505;BME280;16452;54.174;12.092;2023-02-02T13:23:33;101763.69;;;6.44;89.08
29505;BME280;16452;54.174;12.092;2023-02-02T13:26:14;101762.91;;;6.39;88.10
29505;BME280;16452;54.174;12.092;2023-02-02T13:32:03;101768.13;;;6.36;87.95
29505;BME280;16452;54.174;12.092;2023-02-02T13:34:46;101782.63;;;6.46;87.39
29505;BME280;16452;54.174;12.092;2023-02-02T13:37:36;101779.31;;;6.38;89.13
29505;BME280;16452;54.174;12.092;2023-02-02T13:43:22;101791.25;;;6.46;89.14
29505;BME280;16452;54.174;12.092;2023-02-02T13:49:20;101801.16;;;6.23;89.37
29505;BME280;16452;54.174;12.092;2023-02-02T13:51:50;101800.56;;;6.06;89.63
29505;BME280;16452;54.174;12.092;2023-02-02T14:00:25;101820.72;;;6.38;91.29
29505;BME280;16452;54.174;12.092;2023-02-02T14:03:03;101824.72;;;6.55;91.26
29505;BME280;16452;54.174;12.092;2023-02-02T14:05:38;101823.97;;;6.49;93.11
29505;BME280;16452;54.174;12.092;2023-02-02T14:08:20;101836.13;;;6.44;93.21
29505;BME280;16452;54.174;12.092;2023-02-02T14:13:25;101845.34;;;6.58;93.95
29505;BME280;16452;54.174;12.092;2023-02-02T14:16:46;101846.53;;;6.41;95.25
29505;BME280;16452;54.174;12.092;2023-02-02T14:40:54;101870.69;;;6.41;96.03
29505;BME280;16452;54.174;12.092;2023-02-02T14:43:41;101883.63;;;6.41;94.86
29505;BME280;16452;54.174;12.092;2023-02-02T14:48:40;101900.91;;;6.39;94.65
29505;BME280;16452;54.174;12.092;2023-02-02T14:51:21;101906.22;;;6.30;95.45
29505;BME280;16452;54.174;12.092;2023-02-02T14:53:53;101905.81;;;6.02;95.91
29505;BME280;16452;54.174;12.092;2023-02-02T14:56:51;101907.97;;;6.30;95.30
29505;BME280;16452;54.174;12.092;2023-02-02T14:59:38;101908.78;;;6.33;94.66
29505;BME280;16452;54.174;12.092;2023-02-02T15:04:43;101910.50;;;6.83;94.53